Time;durP1;ratioP1;P1;durP2;ratioP2;P2;SDS_P1;SDS_P2;PMS_P1;PMS_P2;Temp;Humidity;BMP_temperature;BMP_pressure;BME280_temperature;BME280_humidity;BME280_pressure;Samples;Min_cycle;Max_cycle;Signal;HPM_P1;HPM_P2
2022/01/06 00:06:22;;;;;;;20.5;5.8;;;;;;;2.9;100.0;101260;;;;
2022/01/06 00:08:20;;;;;;;20.5;5.8;;;;;;;3.0;100.0;101260;;;;
2022/01/06 00:10:20;;;;;;;20.5;5.8;;;;;;;2.9;100.0;101250;;;;
2022/01/06 00:26:20;;;;;;;19.7;7.6;;;;;;;2.7;100.0;101270;;;;
2022/01/06 00:34:20;;;;;;;19.7;7.6;;;;;;;2.6;100.0;101270;;;;
2022/01/06 00:40:20;;;;;;;21.4;6.9;;;;;;;2.7;100.0;101280;;;;
2022/01/06 01:02:20;;;;;;;18.2;6.7;;;;;;;2.6;100.0;101290;;;;
2022/01/06 01:08:20;;;;;;;18.2;6.7;;;;;;;2.5;100.0;101290;;;;
2022/01/06 01:18:21;;;;;;;18.2;6.7;;;;;;;2.4;100.0;101300;;;;
2022/01/06 01:26:20;;;;;;;21.2;6.8;;;;;;;2.3;100.0;101310;;;;
2022/01/06 01:34:23;;;;;;;21.2;6.8;;;;;;;2.2;100.0;101310;;;;
2022/01/06 01:44:21;;;;;;;22.0;7.2;;;;;;;2.1;100.0;101320;;;;
2022/01/06 01:58:20;;;;;;;22.0;7.2;;;;;;;2.0;100.0;101350;;;;
2022/01/06 02:02:20;;;;;;;19.5;6.4;;;;;;;2.1;100.0;101360;;;;
2022/01/06 02:10:20;;;;;;;19.5;6.4;;;;;;;2.0;100.0;101370;;;;
2022/01/06 02:20:20;;;;;;;18.4;6.9;;;;;;;2.1;100.0;101370;;;;
2022/01/06 02:24:20;;;;;;;18.4;6.9;;;;;;;2.0;100.0;101370;;;;
2022/01/06 02:28:22;;;;;;;18.4;6.9;;;;;;;1.9;100.0;101380;;;;
2022/01/06 02:32:22;;;;;;;18.4;6.9;;;;;;;2.0;100.0;101380;;;;
2022/01/06 02:34:20;;;;;;;18.4;6.9;;;;;;;1.9;100.0;101380;;;;
2022/01/06 02:36:20;;;;;;;18.4;6.9;;;;;;;1.8;100.0;101380;;;;
2022/01/06 02:38:20;;;;;;;18.4;6.9;;;;;;;1.9;100.0;101380;;;;
2022/01/06 02:40:20;;;;;;;26.3;7.6;;;;;;;1.8;100.0;101380;;;;
2022/01/06 02:44:20;;;;;;;26.3;7.6;;;;;;;1.9;100.0;101380;;;;
2022/01/06 02:50:20;;;;;;;26.3;7.6;;;;;;;1.8;100.0;101380;;;;
2022/01/06 02:52:20;;;;;;;26.3;7.6;;;;;;;1.9;100.0;101380;;;;
2022/01/06 02:54:21;;;;;;;26.3;7.6;;;;;;;1.8;100.0;101380;;;;
2022/01/06 03:00:20;;;;;;;18.7;7.3;;;;;;;1.9;100.0;101370;;;;
2022/01/06 03:06:20;;;;;;;18.7;7.3;;;;;;;1.8;100.0;101370;;;;
2022/01/06 03:08:23;;;;;;;18.7;7.3;;;;;;;1.9;100.0;101380;;;;
2022/01/06 03:10:20;;;;;;;18.7;7.3;;;;;;;1.8;100.0;101380;;;;
2022/01/06 03:14:25;;;;;;;18.7;7.3;;;;;;;1.7;100.0;101380;;;;
2022/01/06 03:20:21;;;;;;;14.6;6.7;;;;;;;1.6;100.0;101390;;;;
2022/01/06 03:22:20;;;;;;;14.6;6.7;;;;;;;1.7;100.0;101390;;;;
2022/01/06 03:34:20;;;;;;;14.6;6.7;;;;;;;1.8;100.0;101410;;;;
2022/01/06 03:36:20;;;;;;;14.6;6.7;;;;;;;1.7;100.0;101400;;;;
2022/01/06 03:40:20;;;;;;;18.4;7.0;;;;;;;1.6;100.0;101400;;;;
2022/01/06 03:48:20;;;;;;;18.4;7.0;;;;;;;1.7;100.0;101400;;;;
2022/01/06 03:50:20;;;;;;;18.4;7.0;;;;;;;1.6;100.0;101400;;;;
2022/01/06 03:52:20;;;;;;;18.4;7.0;;;;;;;1.5;100.0;101400;;;;
2022/01/06 04:02:20;;;;;;;21.0;6.6;;;;;;;1.4;100.0;101410;;;;
2022/01/06 04:08:20;;;;;;;21.0;6.6;;;;;;;1.5;100.0;101420;;;;
2022/01/06 04:10:20;;;;;;;21.0;6.6;;;;;;;1.4;100.0;101410;;;;
2022/01/06 04:12:20;;;;;;;21.0;6.6;;;;;;;1.3;100.0;101410;;;;
2022/01/06 04:20:20;;;;;;;17.6;7.1;;;;;;;1.2;100.0;101420;;;;
2022/01/06 04:22:20;;;;;;;17.6;7.1;;;;;;;1.3;100.0;101420;;;;
2022/01/06 04:26:21;;;;;;;17.6;7.1;;;;;;;1.2;100.0;101420;;;;
2022/01/06 04:35:04;;;;;;;17.6;7.1;;;;;;;1.2;100.0;101440;;;;
2022/01/06 04:46:21;;;;;;;17.8;6.7;;;;;;;1.1;100.0;101440;;;;
2022/01/06 04:48:20;;;;;;;17.8;6.7;;;;;;;1.0;100.0;101440;;;;
2022/01/06 05:06:20;;;;;;;16.6;6.6;;;;;;;0.9;100.0;101470;;;;
2022/01/06 05:10:20;;;;;;;16.6;6.6;;;;;;;0.8;100.0;101470;;;;
2022/01/06 05:24:20;;;;;;;16.9;7.3;;;;;;;0.7;100.0;101490;;;;
2022/01/06 05:30:20;;;;;;;16.9;7.3;;;;;;;0.8;100.0;101490;;;;
2022/01/06 05:32:20;;;;;;;16.9;7.3;;;;;;;0.7;100.0;101490;;;;
2022/01/06 05:44:20;;;;;;;18.1;7.9;;;;;;;0.8;100.0;101500;;;;
2022/01/06 05:46:20;;;;;;;18.1;7.9;;;;;;;0.7;100.0;101500;;;;
2022/01/06 05:48:20;;;;;;;18.1;7.9;;;;;;;0.6;100.0;101510;;;;
2022/01/06 05:52:20;;;;;;;18.1;7.9;;;;;;;0.7;100.0;101510;;;;
2022/01/06 05:56:20;;;;;;;18.1;7.9;;;;;;;0.8;100.0;101510;;;;
2022/01/06 06:06:20;;;;;;;16.7;7.9;;;;;;;0.7;100.0;101530;;;;
2022/01/06 06:12:20;;;;;;;16.7;7.9;;;;;;;0.6;100.0;101530;;;;
2022/01/06 06:14:20;;;;;;;16.7;7.9;;;;;;;0.7;100.0;101530;;;;
2022/01/06 06:16:20;;;;;;;16.7;7.9;;;;;;;0.6;100.0;101540;;;;
2022/01/06 06:22:20;;;;;;;22.4;7.4;;;;;;;0.5;100.0;101550;;;;
2022/01/06 06:26:20;;;;;;;22.4;7.4;;;;;;;0.6;100.0;101550;;;;
2022/01/06 06:28:20;;;;;;;22.4;7.4;;;;;;;0.5;100.0;101550;;;;
2022/01/06 06:30:25;;;;;;;22.4;7.4;;;;;;;0.6;100.0;101550;;;;
2022/01/06 06:36:20;;;;;;;22.4;7.4;;;;;;;0.5;100.0;101560;;;;
2022/01/06 06:38:20;;;;;;;19.7;7.0;;;;;;;0.6;100.0;101560;;;;
2022/01/06 06:46:20;;;;;;;19.7;7.0;;;;;;;0.5;100.0;101560;;;;
2022/01/06 07:04:30;;;;;;;17.6;7.5;;;;;;;0.4;100.0;101580;;;;
2022/01/06 07:14:20;;;;;;;17.6;7.5;;;;;;;0.3;100.0;101590;;;;
2022/01/06 07:16:20;;;;;;;17.6;7.5;;;;;;;0.4;100.0;101600;;;;
2022/01/06 07:24:20;;;;;;;22.0;9.1;;;;;;;0.3;100.0;101610;;;;
2022/01/06 07:26:20;;;;;;;22.0;9.1;;;;;;;0.4;100.0;101620;;;;
2022/01/06 07:36:20;;;;;;;22.0;9.1;;;;;;;0.3;100.0;101620;;;;
2022/01/06 07:38:20;;;;;;;16.1;10.5;;;;;;;0.4;100.0;101630;;;;
2022/01/06 07:44:20;;;;;;;16.1;10.5;;;;;;;0.3;100.0;101630;;;;
2022/01/06 07:46:20;;;;;;;16.1;10.5;;;;;;;0.2;100.0;101630;;;;
2022/01/06 07:50:20;;;;;;;16.1;10.5;;;;;;;0.3;100.0;101630;;;;
2022/01/06 07:56:20;;;;;;;16.1;10.5;;;;;;;0.4;100.0;101630;;;;
2022/01/06 07:58:20;;;;;;;18.0;7.9;;;;;;;0.5;100.0;101630;;;;
2022/01/06 08:00:20;;;;;;;18.0;7.9;;;;;;;0.4;100.0;101640;;;;
2022/01/06 08:02:20;;;;;;;18.0;7.9;;;;;;;0.3;100.0;101640;;;;
2022/01/06 08:18:20;;;;;;;17.6;8.8;;;;;;;0.4;100.0;101640;;;;
2022/01/06 08:22:20;;;;;;;17.6;8.8;;;;;;;0.3;100.0;101650;;;;
2022/01/06 08:32:20;;;;;;;17.6;8.8;;;;;;;0.4;100.0;101650;;;;
2022/01/06 08:34:20;;;;;;;17.6;8.8;;;;;;;0.3;100.0;101640;;;;
2022/01/06 08:42:20;;;;;;;17.7;8.2;;;;;;;0.4;100.0;101650;;;;
2022/01/06 08:58:20;;;;;;;24.0;11.7;;;;;;;0.3;100.0;101670;;;;
2022/01/06 09:00:20;;;;;;;24.0;11.7;;;;;;;0.4;100.0;101670;;;;
2022/01/06 09:08:20;;;;;;;24.0;11.7;;;;;;;0.5;100.0;101680;;;;
2022/01/06 09:12:20;;;;;;;24.0;11.7;;;;;;;0.6;100.0;101680;;;;
2022/01/06 09:16:20;;;;;;;24.0;11.7;;;;;;;0.7;100.0;101690;;;;
2022/01/06 09:22:20;;;;;;;29.3;15.7;;;;;;;0.8;100.0;101680;;;;
2022/01/06 09:28:20;;;;;;;29.3;15.7;;;;;;;1.0;100.0;101700;;;;
2022/01/06 09:30:23;;;;;;;29.3;15.7;;;;;;;1.1;100.0;101700;;;;
2022/01/06 09:32:20;;;;;;;29.3;15.7;;;;;;;1.0;100.0;101700;;;;
2022/01/06 09:34:20;;;;;;;29.3;15.7;;;;;;;1.1;100.0;101700;;;;
2022/01/06 09:40:20;;;;;;;21.5;13.6;;;;;;;1.2;100.0;101710;;;;
2022/01/06 09:44:30;;;;;;;21.5;13.6;;;;;;;1.3;100.0;101720;;;;
2022/01/06 09:48:20;;;;;;;21.5;13.6;;;;;;;1.4;100.0;101720;;;;
2022/01/06 09:50:20;;;;;;;21.5;13.6;;;;;;;1.5;100.0;101720;;;;
2022/01/06 09:52:20;;;;;;;21.5;13.6;;;;;;;1.4;100.0;101720;;;;
2022/01/06 09:54:20;;;;;;;21.5;13.6;;;;;;;1.5;100.0;101720;;;;
2022/01/06 09:56:20;;;;;;;21.5;13.6;;;;;;;1.7;100.0;101720;;;;
2022/01/06 09:58:20;;;;;;;26.4;14.5;;;;;;;1.8;100.0;101720;;;;
2022/01/06 10:00:20;;;;;;;26.4;14.5;;;;;;;1.9;100.0;101720;;;;
2022/01/06 10:04:24;;;;;;;26.4;14.5;;;;;;;2.0;100.0;101730;;;;
2022/01/06 10:06:21;;;;;;;26.4;14.5;;;;;;;2.1;100.0;101720;;;;
2022/01/06 10:08:20;;;;;;;26.4;14.5;;;;;;;2.2;100.0;101720;;;;
2022/01/06 10:10:20;;;;;;;26.4;14.5;;;;;;;2.3;100.0;101720;;;;
2022/01/06 10:14:30;;;;;;;26.4;14.5;;;;;;;2.4;100.0;101720;;;;
2022/01/06 10:18:20;;;;;;;17.1;11.1;;;;;;;2.6;100.0;101720;;;;
2022/01/06 10:24:21;;;;;;;17.1;11.1;;;;;;;2.8;100.0;101710;;;;
2022/01/06 10:30:20;;;;;;;17.1;11.1;;;;;;;2.9;100.0;101710;;;;
2022/01/06 10:32:20;;;;;;;17.1;11.1;;;;;;;3.0;100.0;101710;;;;
2022/01/06 10:40:22;;;;;;;20.2;9.1;;;;;;;3.1;100.0;101700;;;;
2022/01/06 10:42:20;;;;;;;20.2;9.1;;;;;;;3.2;100.0;101700;;;;
2022/01/06 10:46:20;;;;;;;20.2;9.1;;;;;;;3.3;100.0;101700;;;;
2022/01/06 10:50:20;;;;;;;20.2;9.1;;;;;;;3.5;100.0;101700;;;;
2022/01/06 10:52:20;;;;;;;20.2;9.1;;;;;;;3.6;100.0;101700;;;;
2022/01/06 10:58:20;;;;;;;20.9;9.0;;;;;;;3.7;100.0;101700;;;;
2022/01/06 11:02:20;;;;;;;20.9;9.0;;;;;;;3.8;100.0;101690;;;;
2022/01/06 11:04:20;;;;;;;20.9;9.0;;;;;;;4.0;100.0;101690;;;;
2022/01/06 11:06:20;;;;;;;20.9;9.0;;;;;;;4.1;100.0;101690;;;;
2022/01/06 11:18:20;;;;;;;17.1;7.3;;;;;;;4.2;100.0;101690;;;;
2022/01/06 11:20:20;;;;;;;17.1;7.3;;;;;;;4.3;100.0;101690;;;;
2022/01/06 11:22:20;;;;;;;17.1;7.3;;;;;;;4.4;100.0;101690;;;;
2022/01/06 11:24:20;;;;;;;17.1;7.3;;;;;;;4.5;100.0;101680;;;;
2022/01/06 11:28:20;;;;;;;17.1;7.3;;;;;;;4.4;100.0;101680;;;;
2022/01/06 11:30:20;;;;;;;17.1;7.3;;;;;;;4.3;100.0;101680;;;;
2022/01/06 11:34:20;;;;;;;17.1;7.3;;;;;;;4.4;100.0;101680;;;;
2022/01/06 11:36:20;;;;;;;15.5;7.0;;;;;;;4.5;100.0;101680;;;;
2022/01/06 11:38:20;;;;;;;15.5;7.0;;;;;;;4.4;100.0;101680;;;;
2022/01/06 11:40:20;;;;;;;15.5;7.0;;;;;;;4.5;100.0;101680;;;;
2022/01/06 11:42:23;;;;;;;15.5;7.0;;;;;;;4.4;100.0;101680;;;;
2022/01/06 11:44:20;;;;;;;15.5;7.0;;;;;;;4.6;100.0;101680;;;;
2022/01/06 11:46:21;;;;;;;15.5;7.0;;;;;;;4.5;100.0;101680;;;;
2022/01/06 11:50:25;;;;;;;15.5;7.0;;;;;;;4.6;100.0;101680;;;;
2022/01/06 11:56:22;;;;;;;17.2;7.2;;;;;;;4.7;100.0;101670;;;;
2022/01/06 12:00:20;;;;;;;17.2;7.2;;;;;;;4.8;100.0;101680;;;;
2022/01/06 12:04:20;;;;;;;17.2;7.2;;;;;;;4.9;100.0;101680;;;;
2022/01/06 12:06:20;;;;;;;17.2;7.2;;;;;;;5.1;100.0;101680;;;;
2022/01/06 12:16:20;;;;;;;12.4;5.9;;;;;;;5.2;100.0;101680;;;;
2022/01/06 12:26:20;;;;;;;12.4;5.9;;;;;;;5.3;100.0;101670;;;;
2022/01/06 12:28:20;;;;;;;12.4;5.9;;;;;;;5.4;100.0;101670;;;;
2022/01/06 12:32:20;;;;;;;12.4;5.9;;;;;;;5.5;100.0;101670;;;;
2022/01/06 12:36:20;;;;;;;14.6;5.9;;;;;;;5.6;100.0;101670;;;;
2022/01/06 12:38:25;;;;;;;14.6;5.9;;;;;;;5.8;100.0;101660;;;;
2022/01/06 12:50:20;;;;;;;14.6;5.9;;;;;;;5.6;100.0;101640;;;;
2022/01/06 12:56:20;;;;;;;8.4;5.3;;;;;;;5.7;100.0;101630;;;;
2022/01/06 13:00:20;;;;;;;8.4;5.3;;;;;;;5.8;100.0;101630;;;;
2022/01/06 13:02:20;;;;;;;8.4;5.3;;;;;;;5.9;100.0;101630;;;;
2022/01/06 13:06:20;;;;;;;8.4;5.3;;;;;;;5.8;100.0;101620;;;;
2022/01/06 13:22:25;;;;;;;12.1;5.3;;;;;;;5.7;100.0;101630;;;;
2022/01/06 13:28:20;;;;;;;12.1;5.3;;;;;;;5.6;100.0;101620;;;;
2022/01/06 13:30:20;;;;;;;12.1;5.3;;;;;;;5.7;100.0;101620;;;;
2022/01/06 13:32:20;;;;;;;12.1;5.3;;;;;;;5.6;100.0;101620;;;;
2022/01/06 13:34:20;;;;;;;12.1;5.3;;;;;;;5.7;100.0;101620;;;;
2022/01/06 13:36:20;;;;;;;12.1;5.2;;;;;;;5.8;100.0;101610;;;;
2022/01/06 13:42:20;;;;;;;12.1;5.2;;;;;;;5.9;100.0;101610;;;;
2022/01/06 13:46:22;;;;;;;12.1;5.2;;;;;;;6.0;100.0;101610;;;;
2022/01/06 13:52:20;;;;;;;12.1;5.2;;;;;;;6.1;100.0;101610;;;;
2022/01/06 13:54:20;;;;;;;12.1;5.2;;;;;;;5.9;100.0;101600;;;;
2022/01/06 13:56:20;;;;;;;14.2;8.2;;;;;;;6.1;100.0;101600;;;;
2022/01/06 13:58:20;;;;;;;14.2;8.2;;;;;;;6.2;100.0;101600;;;;
2022/01/06 14:02:20;;;;;;;14.2;8.2;;;;;;;6.3;100.0;101600;;;;
2022/01/06 14:10:20;;;;;;;14.2;8.2;;;;;;;6.2;100.0;101610;;;;
2022/01/06 14:16:20;;;;;;;10.9;5.6;;;;;;;5.9;100.0;101610;;;;
2022/01/06 14:18:20;;;;;;;10.9;5.6;;;;;;;5.8;100.0;101610;;;;
2022/01/06 14:28:20;;;;;;;10.9;5.6;;;;;;;5.7;100.0;101610;;;;
2022/01/06 14:30:22;;;;;;;10.9;5.6;;;;;;;5.6;100.0;101610;;;;
2022/01/06 14:36:20;;;;;;;19.7;9.5;;;;;;;5.7;100.0;101610;;;;
2022/01/06 14:38:20;;;;;;;19.7;9.5;;;;;;;5.6;100.0;101610;;;;
2022/01/06 14:50:20;;;;;;;19.7;9.5;;;;;;;5.5;100.0;101600;;;;
2022/01/06 14:52:20;;;;;;;19.7;9.5;;;;;;;5.6;100.0;101600;;;;
2022/01/06 14:54:20;;;;;;;19.7;9.5;;;;;;;5.5;100.0;101600;;;;
2022/01/06 15:04:20;;;;;;;17.9;9.5;;;;;;;5.4;100.0;101600;;;;
2022/01/06 15:14:20;;;;;;;17.9;9.5;;;;;;;5.5;100.0;101590;;;;
2022/01/06 15:16:20;;;;;;;16.9;10.7;;;;;;;5.4;100.0;101590;;;;
2022/01/06 15:18:20;;;;;;;16.9;10.7;;;;;;;5.3;100.0;101590;;;;
2022/01/06 15:20:20;;;;;;;16.9;10.7;;;;;;;5.4;100.0;101590;;;;
2022/01/06 15:30:20;;;;;;;16.9;10.7;;;;;;;5.3;100.0;101590;;;;
2022/01/06 15:32:20;;;;;;;16.9;10.7;;;;;;;5.4;100.0;101580;;;;
2022/01/06 15:34:20;;;;;;;16.9;10.7;;;;;;;5.3;100.0;101580;;;;
2022/01/06 15:38:20;;;;;;;19.3;10.6;;;;;;;5.2;100.0;101580;;;;
2022/01/06 15:42:20;;;;;;;19.3;10.6;;;;;;;5.3;100.0;101570;;;;
2022/01/06 15:44:20;;;;;;;19.3;10.6;;;;;;;5.2;100.0;101570;;;;
2022/01/06 15:50:20;;;;;;;19.3;10.6;;;;;;;5.1;100.0;101570;;;;
2022/01/06 15:54:20;;;;;;;19.3;10.6;;;;;;;4.9;100.0;101580;;;;
2022/01/06 15:58:20;;;;;;;16.7;10.4;;;;;;;4.8;100.0;101580;;;;
2022/01/06 16:08:20;;;;;;;16.7;10.4;;;;;;;4.6;100.0;101590;;;;
2022/01/06 16:10:20;;;;;;;16.7;10.4;;;;;;;4.5;100.0;101590;;;;
2022/01/06 16:12:20;;;;;;;16.7;10.4;;;;;;;4.6;100.0;101590;;;;
2022/01/06 16:14:20;;;;;;;16.7;10.4;;;;;;;4.4;100.0;101590;;;;
2022/01/06 16:20:20;;;;;;;15.7;7.5;;;;;;;4.3;100.0;101590;;;;
2022/01/06 16:26:21;;;;;;;15.7;7.5;;;;;;;4.2;100.0;101600;;;;
2022/01/06 16:28:20;;;;;;;15.7;7.5;;;;;;;4.1;100.0;101610;;;;
2022/01/06 16:34:20;;;;;;;15.7;7.5;;;;;;;4.0;100.0;101610;;;;
2022/01/06 16:38:20;;;;;;;14.4;6.7;;;;;;;4.1;100.0;101610;;;;
2022/01/06 16:40:20;;;;;;;14.4;6.7;;;;;;;3.9;100.0;101620;;;;
2022/01/06 16:48:20;;;;;;;14.4;6.7;;;;;;;3.8;100.0;101620;;;;
2022/01/06 16:52:20;;;;;;;14.4;6.7;;;;;;;3.7;100.0;101610;;;;
2022/01/06 16:58:20;;;;;;;13.3;6.9;;;;;;;3.6;100.0;101620;;;;
2022/01/06 17:02:20;;;;;;;13.3;6.9;;;;;;;3.5;100.0;101620;;;;
2022/01/06 17:04:20;;;;;;;13.3;6.9;;;;;;;3.4;100.0;101620;;;;
2022/01/06 17:12:20;;;;;;;13.3;6.9;;;;;;;3.5;100.0;101610;;;;
2022/01/06 17:14:20;;;;;;;13.3;6.9;;;;;;;3.4;100.0;101620;;;;
2022/01/06 17:16:20;;;;;;;20.1;7.4;;;;;;;3.3;100.0;101620;;;;
2022/01/06 17:22:20;;;;;;;20.1;7.4;;;;;;;3.2;100.0;101620;;;;
2022/01/06 17:28:20;;;;;;;20.1;7.4;;;;;;;3.1;100.0;101620;;;;
2022/01/06 17:32:20;;;;;;;20.1;7.4;;;;;;;3.2;100.0;101620;;;;
2022/01/06 17:34:20;;;;;;;20.1;7.4;;;;;;;3.3;100.0;101620;;;;
2022/01/06 17:36:22;;;;;;;17.4;8.2;;;;;;;3.2;100.0;101620;;;;
2022/01/06 17:42:20;;;;;;;17.4;8.2;;;;;;;3.1;100.0;101620;;;;
2022/01/06 17:50:20;;;;;;;17.4;8.2;;;;;;;3.2;100.0;101610;;;;
2022/01/06 17:52:20;;;;;;;17.4;8.2;;;;;;;3.1;100.0;101610;;;;
2022/01/06 17:54:20;;;;;;;17.4;8.2;;;;;;;3.2;100.0;101610;;;;
2022/01/06 18:00:20;;;;;;;15.9;7.8;;;;;;;3.3;100.0;101610;;;;
2022/01/06 18:02:20;;;;;;;15.9;7.8;;;;;;;3.2;100.0;101610;;;;
2022/01/06 18:06:25;;;;;;;15.9;7.8;;;;;;;3.1;100.0;101600;;;;
2022/01/06 18:14:20;;;;;;;16.6;9.7;;;;;;;3.2;100.0;101600;;;;
2022/01/06 18:16:20;;;;;;;16.6;9.7;;;;;;;3.1;100.0;101600;;;;
2022/01/06 18:18:20;;;;;;;16.6;9.7;;;;;;;3.2;100.0;101600;;;;
2022/01/06 18:22:20;;;;;;;16.6;9.7;;;;;;;3.1;100.0;101590;;;;
2022/01/06 18:24:20;;;;;;;16.6;9.7;;;;;;;3.2;100.0;101590;;;;
2022/01/06 18:28:20;;;;;;;16.6;9.7;;;;;;;3.1;100.0;101580;;;;
2022/01/06 18:30:20;;;;;;;16.6;9.7;;;;;;;3.2;100.0;101580;;;;
2022/01/06 18:34:20;;;;;;;23.1;11.7;;;;;;;3.0;100.0;101580;;;;
2022/01/06 18:38:20;;;;;;;23.1;11.7;;;;;;;3.1;100.0;101570;;;;
2022/01/06 18:46:20;;;;;;;23.1;11.7;;;;;;;3.0;100.0;101580;;;;
2022/01/06 18:48:21;;;;;;;23.1;11.7;;;;;;;3.1;100.0;101570;;;;
2022/01/06 18:50:20;;;;;;;23.1;11.7;;;;;;;3.2;100.0;101570;;;;
2022/01/06 18:52:20;;;;;;;23.1;11.7;;;;;;;3.1;100.0;101570;;;;
2022/01/06 18:56:20;;;;;;;22.4;13.3;;;;;;;3.0;100.0;101560;;;;
2022/01/06 19:04:20;;;;;;;22.4;13.3;;;;;;;2.9;100.0;101550;;;;
2022/01/06 19:06:20;;;;;;;22.4;13.3;;;;;;;3.0;100.0;101550;;;;
2022/01/06 19:16:20;;;;;;;30.3;14.9;;;;;;;2.9;100.0;101540;;;;
2022/01/06 19:18:21;;;;;;;30.3;14.9;;;;;;;3.0;100.0;101530;;;;
2022/01/06 19:38:21;;;;;;;25.6;13.3;;;;;;;2.9;100.0;101490;;;;
2022/01/06 19:40:20;;;;;;;25.6;13.3;;;;;;;2.8;100.0;101490;;;;
2022/01/06 19:42:20;;;;;;;25.6;13.3;;;;;;;2.9;100.0;101480;;;;
2022/01/06 19:58:20;;;;;;;20.3;11.9;;;;;;;3.0;100.0;101470;;;;
2022/01/06 20:02:20;;;;;;;20.3;11.9;;;;;;;2.9;100.0;101460;;;;
2022/01/06 20:04:20;;;;;;;20.3;11.9;;;;;;;3.0;100.0;101460;;;;
2022/01/06 20:06:20;;;;;;;20.3;11.9;;;;;;;2.9;100.0;101450;;;;
2022/01/06 20:08:22;;;;;;;20.3;11.9;;;;;;;3.0;100.0;101450;;;;
2022/01/06 20:14:22;;;;;;;19.8;11.7;;;;;;;2.9;100.0;101440;;;;
2022/01/06 20:16:04;;;;;;;19.8;11.7;;;;;;;2.9;100.0;101440;;;;
2022/01/06 20:36:53;;;;;;;15.2;9.8;;;;;;;2.9;100.0;101440;;;;
2022/01/06 20:38:54;;;;;;;15.2;9.8;;;;;;;2.8;100.0;101430;;;;
2022/01/06 20:58:55;;;;;;;14.4;9.4;;;;;;;2.7;100.0;101410;;;;
2022/01/06 21:02:54;;;;;;;14.4;9.4;;;;;;;2.8;100.0;101410;;;;
2022/01/06 21:04:53;;;;;;;14.4;9.4;;;;;;;2.7;100.0;101410;;;;
2022/01/06 21:08:55;;;;;;;14.4;9.4;;;;;;;2.8;100.0;101400;;;;
2022/01/06 21:10:53;;;;;;;14.4;9.4;;;;;;;2.7;100.0;101400;;;;
2022/01/06 21:12:53;;;;;;;14.4;9.4;;;;;;;2.8;100.0;101400;;;;
2022/01/06 21:16:54;;;;;;;14.2;9.3;;;;;;;2.7;100.0;101400;;;;
2022/01/06 21:30:54;;;;;;;14.2;9.3;;;;;;;2.8;100.0;101400;;;;
2022/01/06 21:32:53;;;;;;;14.2;9.3;;;;;;;2.7;100.0;101390;;;;
2022/01/06 21:34:54;;;;;;;16.1;8.7;;;;;;;2.8;100.0;101390;;;;
2022/01/06 21:36:53;;;;;;;16.1;8.7;;;;;;;2.7;100.0;101380;;;;
2022/01/06 21:40:53;;;;;;;16.1;8.7;;;;;;;2.8;100.0;101370;;;;
2022/01/06 21:44:53;;;;;;;16.1;8.7;;;;;;;2.7;100.0;101370;;;;
2022/01/06 21:48:54;;;;;;;16.1;8.7;;;;;;;2.8;100.0;101350;;;;
2022/01/06 21:50:53;;;;;;;16.1;8.7;;;;;;;2.7;100.0;101360;;;;
2022/01/06 21:52:55;;;;;;;16.1;8.7;;;;;;;2.8;100.0;101360;;;;
2022/01/06 21:56:53;;;;;;;13.2;8.5;;;;;;;2.7;100.0;101350;;;;
2022/01/06 22:06:53;;;;;;;13.2;8.5;;;;;;;2.8;100.0;101340;;;;
2022/01/06 22:08:53;;;;;;;13.2;8.5;;;;;;;2.7;100.0;101330;;;;
2022/01/06 22:10:53;;;;;;;13.2;8.5;;;;;;;2.8;100.0;101340;;;;
2022/01/06 22:12:53;;;;;;;13.2;8.5;;;;;;;2.7;100.0;101330;;;;
2022/01/06 22:30:54;;;;;;;14.6;8.4;;;;;;;2.8;100.0;101300;;;;
2022/01/06 22:32:53;;;;;;;14.6;8.4;;;;;;;2.7;100.0;101300;;;;
2022/01/06 22:36:55;;;;;;;14.8;8.2;;;;;;;2.8;100.0;101300;;;;
2022/01/06 22:42:53;;;;;;;14.8;8.2;;;;;;;2.9;100.0;101280;;;;
2022/01/06 22:48:53;;;;;;;14.8;8.2;;;;;;;2.8;100.0;101270;;;;
2022/01/06 22:50:54;;;;;;;14.8;8.2;;;;;;;2.9;100.0;101270;;;;
2022/01/06 22:54:53;;;;;;;13.4;8.1;;;;;;;2.8;100.0;101270;;;;
2022/01/06 22:56:53;;;;;;;13.4;8.1;;;;;;;2.9;100.0;101260;;;;
2022/01/06 22:58:53;;;;;;;13.4;8.1;;;;;;;2.8;100.0;101260;;;;
2022/01/06 23:00:54;;;;;;;13.4;8.1;;;;;;;2.9;100.0;101260;;;;
2022/01/06 23:06:53;;;;;;;13.4;8.1;;;;;;;2.8;100.0;101260;;;;
2022/01/06 23:08:53;;;;;;;13.4;8.1;;;;;;;2.9;100.0;101250;;;;
2022/01/06 23:10:53;;;;;;;13.4;8.1;;;;;;;2.8;100.0;101250;;;;
2022/01/06 23:14:53;;;;;;;11.4;8.1;;;;;;;2.9;100.0;101240;;;;
2022/01/06 23:20:53;;;;;;;11.4;8.1;;;;;;;2.8;100.0;101230;;;;
2022/01/06 23:24:53;;;;;;;11.4;8.1;;;;;;;2.9;100.0;101230;;;;
2022/01/06 23:28:54;;;;;;;11.4;8.1;;;;;;;2.8;100.0;101220;;;;
2022/01/06 23:30:53;;;;;;;11.4;8.1;;;;;;;2.9;100.0;101220;;;;
2022/01/06 23:32:53;;;;;;;13.9;7.7;;;;;;;3.0;100.0;101220;;;;
2022/01/06 23:36:54;;;;;;;13.9;7.7;;;;;;;3.1;100.0;101220;;;;
2022/01/06 23:38:54;;;;;;;13.9;7.7;;;;;;;3.0;100.0;101220;;;;
2022/01/06 23:40:53;;;;;;;13.9;7.7;;;;;;;3.1;100.0;101220;;;;
2022/01/06 23:42:53;;;;;;;13.9;7.7;;;;;;;3.0;100.0;101220;;;;
2022/01/06 23:44:53;;;;;;;13.9;7.7;;;;;;;2.9;100.0;101200;;;;
2022/01/06 23:46:53;;;;;;;13.9;7.7;;;;;;;3.0;100.0;101210;;;;
2022/01/06 23:48:55;;;;;;;13.9;7.7;;;;;;;3.1;100.0;101210;;;;
2022/01/06 23:56:54;;;;;;;12.4;7.1;;;;;;;3.0;100.0;101190;;;;
2022/01/06 23:58:54;;;;;;;12.4;7.1;;;;;;;3.1;100.0;101190;;;;
